createdAt,value
2022-09-22T00:03:44.535Z,13.68
2022-09-22T00:06:13.853Z,13.05
2022-09-22T00:08:43.051Z,13.57
2022-09-22T00:11:17.194Z,13.85
2022-09-22T00:13:52.512Z,13.40
2022-09-22T00:16:22.808Z,12.18
2022-09-22T00:18:50.032Z,12.15
2022-09-22T00:21:18.860Z,13.00
2022-09-22T00:23:47.177Z,13.33
2022-09-22T00:26:16.676Z,13.02
2022-09-22T00:28:45.256Z,13.10
2022-09-22T00:31:17.758Z,12.38
2022-09-22T00:33:46.338Z,12.15
2022-09-22T00:36:14.643Z,12.23
2022-09-22T00:38:42.180Z,12.02
2022-09-22T00:41:16.639Z,11.88
2022-09-22T00:43:47.104Z,12.02
2022-09-22T00:46:25.912Z,11.60
2022-09-22T00:49:00.978Z,11.43
2022-09-22T00:51:32.208Z,10.98
2022-09-22T00:54:01.103Z,11.80
2022-09-22T00:56:32.163Z,10.73
2022-09-22T00:59:05.604Z,11.45
2022-09-22T01:01:35.470Z,11.07
2022-09-22T01:04:03.182Z,11.50
2022-09-22T01:06:29.922Z,9.65
2022-09-22T01:08:57.218Z,11.30
2022-09-22T01:11:25.174Z,10.02
2022-09-22T01:14:01.327Z,10.48
2022-09-22T01:16:42.997Z,9.30
2022-09-22T01:19:21.276Z,10.27
2022-09-22T01:22:01.269Z,9.55
2022-09-22T01:24:47.776Z,10.05
2022-09-22T01:27:26.365Z,9.73
2022-09-22T01:30:33.249Z,9.40
2022-09-22T01:33:23.587Z,9.80
2022-09-22T01:36:05.450Z,9.35
2022-09-22T01:38:38.942Z,10.32
2022-09-22T01:41:09.701Z,9.23
2022-09-22T01:43:46.275Z,9.35
2022-09-22T01:46:21.830Z,9.55
2022-09-22T01:48:51.308Z,9.25
2022-09-22T01:51:38.252Z,8.55
2022-09-22T01:54:17.474Z,8.77
2022-09-22T01:56:46.937Z,8.23
2022-09-22T01:59:15.787Z,8.52
2022-09-22T02:01:46.419Z,8.33
2022-09-22T02:04:17.050Z,8.32
2022-09-22T02:06:48.019Z,8.95
2022-09-22T02:09:19.951Z,8.85
2022-09-22T02:11:46.794Z,8.10
2022-09-22T02:14:14.040Z,8.00
2022-09-22T02:16:41.105Z,8.10
2022-09-22T02:19:13.933Z,8.20
2022-09-22T02:21:43.383Z,8.45
2022-09-22T02:24:43.422Z,8.23
2022-09-22T02:27:30.254Z,7.95
2022-09-22T02:32:48.696Z,7.55
2022-09-22T02:35:15.998Z,7.38
2022-09-22T02:38:03.675Z,7.55
2022-09-22T02:40:51.869Z,7.43
2022-09-22T02:43:18.711Z,7.45
2022-09-22T02:48:34.674Z,6.60
2022-09-22T02:51:01.671Z,7.13
2022-09-22T02:53:28.422Z,7.43
2022-09-22T02:55:55.216Z,7.05
2022-09-22T02:58:21.928Z,6.97
2022-09-22T03:00:48.652Z,6.75
2022-09-22T03:03:15.384Z,7.20
2022-09-22T03:05:42.165Z,6.78
2022-09-22T03:08:08.931Z,6.25
2022-09-22T03:10:35.872Z,6.60
2022-09-22T03:13:16.083Z,6.10
2022-09-22T03:15:45.103Z,6.72
2022-09-22T03:18:11.869Z,6.38
2022-09-22T03:20:38.631Z,6.30
2022-09-22T03:23:05.591Z,6.63
2022-09-22T03:25:32.307Z,6.15
2022-09-22T03:27:59.041Z,6.05
2022-09-22T03:30:25.778Z,6.10
2022-09-22T03:32:52.534Z,6.38
2022-09-22T03:35:19.292Z,6.25
2022-09-22T03:37:46.459Z,5.63
2022-09-22T03:40:13.663Z,5.93
2022-09-22T03:42:40.424Z,5.53
2022-09-22T03:45:07.596Z,5.90
2022-09-22T03:47:34.300Z,5.35
2022-09-22T03:50:01.008Z,5.85
2022-09-22T03:52:27.743Z,4.97
2022-09-22T03:54:54.474Z,6.28
2022-09-22T03:57:21.256Z,5.75
2022-09-22T03:59:47.998Z,5.50
2022-09-22T04:02:14.725Z,5.30
2022-09-22T04:04:41.612Z,5.70
2022-09-22T04:07:08.867Z,5.60
2022-09-22T04:09:35.840Z,5.32
2022-09-22T04:12:02.635Z,4.97
2022-09-22T04:14:29.965Z,5.30
2022-09-22T04:16:56.870Z,5.63
2022-09-22T04:19:23.817Z,4.93
2022-09-22T04:21:56.145Z,4.88
2022-09-22T04:24:24.490Z,5.45
2022-09-22T04:27:08.476Z,4.70
2022-09-22T04:29:38.252Z,5.05
2022-09-22T04:32:05.394Z,4.68
2022-09-22T04:34:32.111Z,5.30
2022-09-22T04:36:58.919Z,5.10
2022-09-22T04:39:28.464Z,4.80
2022-09-22T04:41:55.532Z,4.85
2022-09-22T04:44:22.320Z,4.35
2022-09-22T04:46:50.201Z,4.50
2022-09-22T04:49:18.055Z,5.10
2022-09-22T04:51:45.070Z,4.72
2022-09-22T04:54:11.839Z,4.75
2022-09-22T04:56:38.768Z,4.65
2022-09-22T04:59:05.558Z,4.35
2022-09-22T05:01:32.433Z,4.70
2022-09-22T05:04:02.569Z,4.43
2022-09-22T05:06:29.378Z,4.18
2022-09-22T05:08:56.738Z,4.30
2022-09-22T05:11:23.684Z,4.47
2022-09-22T05:13:51.117Z,4.20
2022-09-22T05:16:18.313Z,4.47
2022-09-22T05:18:45.200Z,3.97
2022-09-22T05:21:12.073Z,4.18
2022-09-22T05:23:39.643Z,4.78
2022-09-22T05:26:06.750Z,4.43
2022-09-22T05:28:33.529Z,4.25
2022-09-22T05:31:00.375Z,4.10
2022-09-22T05:33:27.107Z,4.35
2022-09-22T05:35:53.886Z,16.92
2022-09-22T05:38:20.594Z,59.25
2022-09-22T05:40:47.374Z,35.70
2022-09-22T05:43:14.445Z,28.30
2022-09-22T05:45:41.184Z,26.75
2022-09-22T05:48:07.984Z,27.98
2022-09-22T05:50:34.715Z,24.67
2022-09-22T05:53:09.483Z,22.17
2022-09-22T05:55:37.882Z,21.42
2022-09-22T05:58:04.828Z,18.15
2022-09-22T06:00:32.307Z,16.73
2022-09-22T06:02:59.086Z,14.50
2022-09-22T06:05:26.120Z,14.57
2022-09-22T06:08:02.781Z,22.10
2022-09-22T06:10:31.198Z,26.88
2022-09-22T06:12:59.459Z,25.13
2022-09-22T06:15:26.736Z,23.15
2022-09-22T06:17:53.492Z,22.73
2022-09-22T06:20:20.321Z,20.55
2022-09-22T06:22:47.348Z,17.98
2022-09-22T06:25:14.064Z,17.35
2022-09-22T06:27:40.790Z,15.63
2022-09-22T06:30:11.352Z,14.73
2022-09-22T06:32:43.709Z,15.15
2022-09-22T06:35:10.891Z,13.27
2022-09-22T06:37:38.526Z,13.15
2022-09-22T06:40:08.289Z,12.10
2022-09-22T06:42:35.656Z,12.38
2022-09-22T06:45:04.526Z,12.50
2022-09-22T06:47:32.870Z,11.23
2022-09-22T06:50:02.258Z,11.55
2022-09-22T06:52:29.034Z,12.73
2022-09-22T06:54:58.583Z,29.52
2022-09-22T06:57:27.934Z,27.42
2022-09-22T06:59:54.738Z,23.33
2022-09-22T07:02:28.142Z,21.75
2022-09-22T07:04:59.016Z,18.92
2022-09-22T07:07:28.146Z,16.70
2022-09-22T07:09:55.312Z,16.38
2022-09-22T07:12:22.516Z,14.57
2022-09-22T07:14:51.115Z,14.27
2022-09-22T07:17:18.514Z,13.38
2022-09-22T07:19:47.073Z,13.60
2022-09-22T07:22:15.652Z,12.05
2022-09-22T07:24:45.732Z,13.18
2022-09-22T07:27:19.963Z,12.48
2022-09-22T07:32:15.658Z,11.32
2022-09-22T07:34:42.354Z,11.57
2022-09-22T07:37:12.098Z,12.05
2022-09-22T07:42:05.587Z,11.32
2022-09-22T07:44:50.732Z,11.70
2022-09-22T07:47:37.393Z,10.93
2022-09-22T07:50:04.722Z,10.70
2022-09-22T07:52:31.440Z,9.82
2022-09-22T07:54:58.142Z,9.98
2022-09-22T07:57:25.156Z,9.88
2022-09-22T07:59:51.913Z,10.68
2022-09-22T08:02:18.856Z,18.10
2022-09-22T08:04:45.639Z,20.83
2022-09-22T08:07:13.179Z,24.33
2022-09-22T08:09:40.776Z,24.50
2022-09-22T08:12:07.611Z,22.30
2022-09-22T08:14:34.345Z,25.40
2022-09-22T08:17:01.061Z,32.58
2022-09-22T08:19:28.308Z,26.27
2022-09-22T08:21:55.111Z,26.15
2022-09-22T08:24:22.867Z,22.10
2022-09-22T08:26:52.410Z,22.15
2022-09-22T08:29:19.440Z,26.83
2022-09-22T08:31:46.996Z,21.48
2022-09-22T08:34:16.708Z,22.27
2022-09-22T08:36:47.488Z,23.27
2022-09-22T08:39:15.313Z,21.23
2022-09-22T08:42:05.872Z,19.05
2022-09-22T08:44:41.728Z,16.83
2022-09-22T08:47:16.908Z,20.67
2022-09-22T08:50:05.840Z,17.33
2022-09-22T08:52:48.784Z,17.52
2022-09-22T08:55:21.055Z,16.73
2022-09-22T08:57:56.353Z,17.25
2022-09-22T09:00:24.838Z,17.73
2022-09-22T09:03:15.057Z,12.75
2022-09-22T09:06:04.221Z,14.00
2022-09-22T09:09:00.132Z,13.30
2022-09-22T09:11:32.393Z,12.23
2022-09-22T09:17:03.717Z,12.80
2022-09-22T09:19:39.288Z,10.98
2022-09-22T09:22:28.088Z,11.38
2022-09-22T09:25:24.647Z,11.20
2022-09-22T09:27:57.138Z,9.93
2022-09-22T09:30:24.138Z,9.63
2022-09-22T09:32:53.794Z,8.65
2022-09-22T09:35:45.363Z,11.57
2022-09-22T09:38:15.165Z,10.77
2022-09-22T09:43:10.365Z,10.45
2022-09-22T09:45:42.961Z,8.40
2022-09-22T09:48:34.052Z,7.85
2022-09-22T09:51:05.357Z,9.73
2022-09-22T09:53:40.857Z,7.47
2022-09-22T09:56:26.319Z,9.68
2022-09-22T09:59:19.992Z,12.48
2022-09-22T10:01:48.575Z,8.80
2022-09-22T10:04:28.645Z,7.93
2022-09-22T10:07:15.180Z,5.97
2022-09-22T10:09:42.905Z,10.63
2022-09-22T10:12:21.195Z,7.07
2022-09-22T10:14:52.618Z,9.13
2022-09-22T10:17:22.780Z,6.20
2022-09-22T10:19:50.796Z,7.60
2022-09-22T10:22:27.419Z,8.23
2022-09-22T10:25:00.403Z,12.65
2022-09-22T10:27:29.545Z,6.97
2022-09-22T10:30:12.773Z,5.10
2022-09-22T10:32:41.248Z,6.93
2022-09-22T10:35:27.403Z,6.15
2022-09-22T10:37:57.452Z,9.93
2022-09-22T10:40:25.441Z,5.95
2022-09-22T10:45:43.041Z,5.82
2022-09-22T10:48:28.744Z,7.80
2022-09-22T10:51:21.916Z,5.07
2022-09-22T10:53:56.590Z,7.97
2022-09-22T10:56:34.021Z,6.82
2022-09-22T10:59:44.958Z,5.25
2022-09-22T11:02:39.356Z,5.43
2022-09-22T11:05:43.139Z,8.27
2022-09-22T11:08:39.035Z,5.25
2022-09-22T11:11:39.690Z,5.57
2022-09-22T11:14:32.023Z,5.93
2022-09-22T11:17:19.808Z,5.55
2022-09-22T11:19:56.072Z,5.55
2022-09-22T11:22:51.345Z,5.57
2022-09-22T11:25:49.468Z,5.07
2022-09-22T11:28:39.202Z,5.63
2022-09-22T11:31:05.972Z,5.82
2022-09-22T11:33:58.136Z,6.28
2022-09-22T11:37:00.068Z,7.47
2022-09-22T11:39:29.541Z,4.65
2022-09-22T11:42:18.252Z,4.45
2022-09-22T11:44:53.932Z,5.47
2022-09-22T11:47:39.704Z,5.60
2022-09-22T11:50:41.243Z,5.20
2022-09-22T11:53:26.565Z,5.82
2022-09-22T11:56:23.105Z,7.68
2022-09-22T11:58:52.599Z,4.80
2022-09-22T12:01:23.166Z,4.57
2022-09-22T12:03:53.772Z,4.85
2022-09-22T12:06:24.900Z,4.80
2022-09-22T12:11:28.204Z,4.57
2022-09-22T12:13:56.137Z,5.70
2022-09-22T12:16:51.077Z,3.75
2022-09-22T12:19:24.426Z,5.35
2022-09-22T12:22:10.385Z,6.40
2022-09-22T12:24:37.344Z,6.60
2022-09-22T12:27:12.164Z,11.77
2022-09-22T12:29:38.980Z,6.30
2022-09-22T12:32:06.061Z,6.53
2022-09-22T12:34:39.144Z,6.07
2022-09-22T12:37:14.508Z,6.18
2022-09-22T12:39:47.086Z,8.07
2022-09-22T12:42:33.943Z,5.50
2022-09-22T12:45:20.458Z,7.85
2022-09-22T12:47:52.307Z,5.53
2022-09-22T12:50:24.779Z,7.45
2022-09-22T12:52:51.638Z,5.32
2022-09-22T12:55:28.865Z,5.68
2022-09-22T12:57:59.587Z,6.40
2022-09-22T13:00:37.440Z,6.07
2022-09-22T13:03:26.996Z,6.63
2022-09-22T13:08:31.112Z,6.43
2022-09-22T13:11:02.992Z,8.60
2022-09-22T13:13:29.686Z,5.45
2022-09-22T13:15:59.767Z,4.45
2022-09-22T13:18:42.982Z,6.75
2022-09-22T13:21:13.800Z,5.43
2022-09-22T13:23:55.262Z,4.03
2022-09-22T13:26:26.844Z,6.25
2022-09-22T13:29:22.508Z,4.65
2022-09-22T13:31:54.437Z,5.53
2022-09-22T13:34:28.632Z,5.63
2022-09-22T13:37:07.896Z,5.28
2022-09-22T13:39:47.193Z,4.80
2022-09-22T13:42:33.410Z,8.65
2022-09-22T13:45:19.003Z,10.10
2022-09-22T13:47:46.906Z,5.82
2022-09-22T13:50:22.043Z,5.75
2022-09-22T13:52:51.184Z,4.57
2022-09-22T13:55:24.472Z,4.53
2022-09-22T13:57:51.830Z,4.28
2022-09-22T14:00:55.128Z,3.70
2022-09-22T14:03:23.700Z,4.47
2022-09-22T14:05:53.922Z,6.05
2022-09-22T14:08:28.601Z,5.30
2022-09-22T14:10:56.452Z,3.47
2022-09-22T14:13:48.371Z,4.43
2022-09-22T14:16:24.327Z,5.40
2022-09-22T14:21:52.830Z,3.40
2022-09-22T14:24:19.836Z,3.88
2022-09-22T14:26:52.602Z,4.05
2022-09-22T14:29:30.757Z,4.55
2022-09-22T14:32:12.657Z,4.55
2022-09-22T14:34:40.321Z,4.22
2022-09-22T14:37:34.345Z,5.45
2022-09-22T14:40:04.210Z,3.30
2022-09-22T14:42:32.662Z,5.18
2022-09-22T14:45:27.522Z,3.72
2022-09-22T14:48:18.410Z,3.17
2022-09-22T14:50:58.187Z,3.33
2022-09-22T14:53:34.584Z,4.07
2022-09-22T14:56:12.064Z,3.55
2022-09-22T14:58:41.160Z,2.92
2022-09-22T15:01:51.071Z,4.00
2022-09-22T15:04:26.387Z,3.53
2022-09-22T15:06:56.418Z,3.28
2022-09-22T15:09:36.335Z,3.47
2022-09-22T15:12:04.290Z,2.53
2022-09-22T15:14:40.604Z,3.50
2022-09-22T15:17:54.807Z,4.25
2022-09-22T15:20:42.731Z,2.83
2022-09-22T15:23:41.873Z,2.80
2022-09-22T15:26:34.776Z,2.97
2022-09-22T15:29:02.673Z,2.97
2022-09-22T15:31:29.908Z,2.85
2022-09-22T15:34:00.184Z,3.17
2022-09-22T15:36:32.904Z,4.63
2022-09-22T15:39:08.168Z,3.28
2022-09-22T15:41:34.980Z,3.13
2022-09-22T15:44:02.798Z,2.60
2022-09-22T15:46:33.950Z,3.65
2022-09-22T15:49:14.959Z,2.67
2022-09-22T15:51:41.663Z,2.58
2022-09-22T15:54:15.936Z,2.70
2022-09-22T15:56:43.376Z,3.58
2022-09-22T15:59:16.676Z,3.83
2022-09-22T16:01:44.185Z,2.65
2022-09-22T16:04:11.193Z,2.20
2022-09-22T16:06:39.085Z,3.63
2022-09-22T16:09:05.985Z,2.45
2022-09-22T16:11:32.864Z,4.22
2022-09-22T16:14:03.412Z,2.78
2022-09-22T16:16:32.368Z,2.42
2022-09-22T16:19:00.153Z,3.42
2022-09-22T16:21:29.395Z,2.58
2022-09-22T16:24:00.617Z,3.10
2022-09-22T16:26:31.605Z,3.50
2022-09-22T16:28:58.883Z,6.40
2022-09-22T16:31:28.716Z,4.40
2022-09-22T16:33:57.531Z,13.73
2022-09-22T16:36:26.327Z,15.00
2022-09-22T16:38:53.387Z,10.32
2022-09-22T16:41:20.922Z,10.90
2022-09-22T16:43:48.490Z,7.53
2022-09-22T16:46:28.059Z,6.40
2022-09-22T16:48:56.085Z,7.78
2022-09-22T16:51:22.856Z,6.00
2022-09-22T16:53:52.812Z,7.07
2022-09-22T16:56:24.505Z,6.13
2022-09-22T16:58:51.647Z,5.63
2022-09-22T17:01:20.062Z,7.55
2022-09-22T17:03:49.396Z,8.03
2022-09-22T17:06:18.619Z,6.65
2022-09-22T17:08:45.759Z,4.82
2022-09-22T17:11:13.818Z,4.70
2022-09-22T17:13:43.339Z,4.43
2022-09-22T17:16:24.535Z,6.35
2022-09-22T17:18:52.465Z,4.20
2022-09-22T17:21:21.840Z,4.35
2022-09-22T17:23:53.466Z,4.30
2022-09-22T17:26:21.261Z,5.07
2022-09-22T17:28:50.186Z,5.95
2022-09-22T17:31:16.954Z,5.00
2022-09-22T17:33:51.422Z,4.00
2022-09-22T17:36:21.094Z,4.13
2022-09-22T17:38:50.660Z,3.30
2022-09-22T17:43:48.479Z,3.17
2022-09-22T17:46:16.811Z,3.63
2022-09-22T17:49:02.877Z,4.57
2022-09-22T17:52:01.187Z,90.93
2022-09-22T17:54:47.744Z,98.43
2022-09-22T17:59:57.216Z,51.65
2022-09-22T18:02:28.916Z,40.63
2022-09-22T18:04:56.074Z,36.17
2022-09-22T18:07:24.824Z,31.30
2022-09-22T18:09:52.254Z,29.43
2022-09-22T18:12:21.514Z,26.90
2022-09-22T18:14:50.173Z,26.02
2022-09-22T18:17:27.010Z,25.08
2022-09-22T18:19:57.678Z,24.02
2022-09-22T18:22:26.044Z,22.95
2022-09-22T18:24:57.181Z,20.58
2022-09-22T18:27:26.999Z,39.97
2022-09-22T18:29:58.297Z,169.23
2022-09-22T18:32:26.659Z,113.78
2022-09-22T18:34:54.385Z,90.63
2022-09-22T18:37:22.448Z,72.15
2022-09-22T18:39:50.469Z,61.08
2022-09-22T18:42:25.266Z,52.20
2022-09-22T18:44:52.348Z,46.05
2022-09-22T18:47:21.063Z,43.80
2022-09-22T18:49:49.993Z,40.87
2022-09-22T18:52:19.269Z,39.03
2022-09-22T18:54:46.677Z,39.28
2022-09-22T18:57:13.551Z,35.50
2022-09-22T18:59:40.866Z,33.10
2022-09-22T19:02:11.660Z,30.50
2022-09-22T19:04:39.232Z,28.30
2022-09-22T19:07:24.477Z,28.30
2022-09-22T19:09:52.872Z,28.67
2022-09-22T19:12:21.756Z,28.15
2022-09-22T19:14:50.078Z,113.45
2022-09-22T19:19:46.635Z,86.45
2022-09-22T19:22:13.460Z,57.35
2022-09-22T19:24:41.724Z,61.58
2022-09-22T19:27:09.235Z,54.35
2022-09-22T19:29:36.491Z,45.17
2022-09-22T19:32:04.363Z,44.83
2022-09-22T19:34:31.365Z,44.42
2022-09-22T19:36:58.708Z,40.00
2022-09-22T19:39:26.510Z,38.03
2022-09-22T19:41:54.840Z,37.22
2022-09-22T19:44:22.511Z,35.63
2022-09-22T19:46:49.973Z,34.28
2022-09-22T19:49:17.461Z,34.30
2022-09-22T19:51:44.321Z,32.95
2022-09-22T19:54:11.910Z,31.75
2022-09-22T19:56:38.899Z,31.23
2022-09-22T19:59:08.815Z,29.70
2022-09-22T20:01:41.593Z,30.42
2022-09-22T20:04:19.832Z,29.85
2022-09-22T20:06:48.674Z,28.23
2022-09-22T20:11:49.152Z,28.00
2022-09-22T20:14:22.869Z,28.20
2022-09-22T20:17:08.785Z,27.58
2022-09-22T20:19:40.057Z,26.05
2022-09-22T20:22:18.891Z,25.00
2022-09-22T20:24:57.471Z,25.73
2022-09-22T20:27:29.171Z,25.13
2022-09-22T20:29:57.675Z,24.20
2022-09-22T20:32:25.884Z,25.00
2022-09-22T20:34:54.199Z,23.10
2022-09-22T20:37:21.862Z,23.40
2022-09-22T20:39:48.657Z,23.63
2022-09-22T20:42:15.869Z,23.13
2022-09-22T20:44:42.860Z,23.05
2022-09-22T20:47:20.067Z,23.38
2022-09-22T20:49:50.856Z,22.58
2022-09-22T20:52:20.047Z,21.33
2022-09-22T20:54:47.409Z,21.17
2022-09-22T20:57:14.257Z,22.05
2022-09-22T20:59:41.492Z,21.70
2022-09-22T21:02:10.260Z,21.08
2022-09-22T21:04:37.077Z,20.25
2022-09-22T21:07:03.918Z,21.05
2022-09-22T21:09:49.550Z,18.77
2022-09-22T21:12:20.578Z,20.05
2022-09-22T21:14:47.463Z,18.75
2022-09-22T21:17:15.554Z,18.98
2022-09-22T21:19:43.224Z,19.05
2022-09-22T21:22:10.322Z,18.17
2022-09-22T21:24:37.161Z,18.67
2022-09-22T21:27:04.761Z,19.67
2022-09-22T21:29:31.621Z,18.40
2022-09-22T21:31:59.654Z,19.70
2022-09-22T21:34:26.484Z,33.13
2022-09-22T21:36:53.307Z,28.83
2022-09-22T21:39:20.810Z,24.85
2022-09-22T21:41:47.575Z,23.98
2022-09-22T21:46:42.162Z,20.10
2022-09-22T21:49:09.521Z,20.45
2022-09-22T21:51:42.209Z,19.10
2022-09-22T21:54:32.732Z,19.15
2022-09-22T21:56:59.471Z,18.60
2022-09-22T21:59:26.215Z,18.70
2022-09-22T22:01:53.066Z,18.08
2022-09-22T22:04:20.272Z,17.40
2022-09-22T22:06:47.142Z,16.92
2022-09-22T22:09:15.545Z,17.50
2022-09-22T22:11:56.541Z,16.92
2022-09-22T22:14:25.576Z,33.35
2022-09-22T22:16:54.179Z,36.88
2022-09-22T22:19:22.766Z,32.35
2022-09-22T22:21:51.284Z,26.50
2022-09-22T22:24:24.044Z,26.55
2022-09-22T22:26:57.237Z,23.52
2022-09-22T22:29:26.097Z,22.33
2022-09-22T22:31:53.269Z,21.58
2022-09-22T22:34:22.491Z,21.25
2022-09-22T22:36:49.745Z,19.42
2022-09-22T22:39:16.584Z,19.63
2022-09-22T22:41:43.463Z,19.90
2022-09-22T22:44:12.260Z,19.83
2022-09-22T22:46:39.182Z,19.80
2022-09-22T22:49:08.687Z,17.88
2022-09-22T22:51:36.035Z,17.20
2022-09-22T22:54:02.851Z,18.60
2022-09-22T22:56:32.648Z,16.35
2022-09-22T22:59:00.416Z,17.17
2022-09-22T23:01:30.226Z,15.40
2022-09-22T23:03:59.736Z,16.83
2022-09-22T23:06:43.953Z,16.30
2022-09-22T23:09:14.030Z,16.55
2022-09-22T23:14:11.246Z,15.32
2022-09-22T23:16:40.380Z,15.07
2022-09-22T23:19:08.620Z,15.07
2022-09-22T23:21:36.370Z,15.85
2022-09-22T23:24:04.354Z,14.77
2022-09-22T23:26:32.020Z,13.65
2022-09-22T23:28:59.530Z,14.35
2022-09-22T23:31:26.662Z,14.32
2022-09-22T23:33:54.041Z,14.25
2022-09-22T23:36:23.005Z,14.57
2022-09-22T23:38:54.226Z,13.98
2022-09-22T23:41:21.506Z,13.75
2022-09-22T23:43:48.253Z,14.23
2022-09-22T23:46:15.053Z,14.07
2022-09-22T23:48:41.902Z,13.52
2022-09-22T23:51:09.735Z,13.25
2022-09-22T23:53:37.742Z,12.82
2022-09-22T23:56:05.808Z,13.07
2022-09-22T23:58:33.241Z,13.18
